createdAt,value
2019-01-29T00:02:17.562Z,21.2
2019-01-29T00:12:16.769Z,21.2
2019-01-29T00:22:15.991Z,21.2
2019-01-29T00:32:15.186Z,21.2
2019-01-29T00:42:14.388Z,21.2
2019-01-29T00:52:13.599Z,21.2
2019-01-29T01:02:12.805Z,21.2
2019-01-29T01:12:12.013Z,21.1
2019-01-29T01:22:11.211Z,21.1
2019-01-29T01:32:10.421Z,21.1
2019-01-29T01:42:09.625Z,21.1
2019-01-29T01:52:08.831Z,21.1
2019-01-29T02:02:08.041Z,21.1
2019-01-29T02:12:07.246Z,21.1
2019-01-29T02:22:06.452Z,21
2019-01-29T02:32:05.658Z,21
2019-01-29T02:42:04.865Z,21
2019-01-29T02:52:04.073Z,21
2019-01-29T03:02:03.277Z,21
2019-01-29T03:12:02.484Z,21
2019-01-29T03:22:01.691Z,21
2019-01-29T03:32:00.897Z,21
2019-01-29T03:42:00.103Z,20.9
2019-01-29T03:51:59.308Z,20.9
2019-01-29T04:01:58.515Z,20.9
2019-01-29T04:11:57.724Z,20.9
2019-01-29T04:21:56.929Z,20.9
2019-01-29T04:31:56.132Z,20.9
2019-01-29T04:41:55.340Z,20.9
2019-01-29T04:51:54.547Z,20.9
2019-01-29T05:01:53.748Z,21
2019-01-29T05:11:52.953Z,21
2019-01-29T05:21:52.161Z,21
2019-01-29T05:31:51.366Z,21
2019-01-29T05:41:50.576Z,21.1
2019-01-29T05:51:49.794Z,21
2019-01-29T06:01:49.000Z,21.2
2019-01-29T06:11:48.213Z,21.6
2019-01-29T06:21:47.424Z,21.7
2019-01-29T06:31:46.637Z,21.6
2019-01-29T06:41:45.843Z,21.6
2019-01-29T06:51:45.052Z,21.7
2019-01-29T07:01:44.264Z,21.6
2019-01-29T07:11:43.476Z,21.6
2019-01-29T07:21:42.689Z,21.5
2019-01-29T07:31:41.898Z,21.5
2019-01-29T07:41:41.108Z,21.5
2019-01-29T07:51:40.320Z,21.6
2019-01-29T08:01:39.532Z,21.5
2019-01-29T08:11:38.740Z,21.5
2019-01-29T08:21:37.999Z,21.6
2019-01-29T08:31:37.157Z,21.5
2019-01-29T08:41:36.364Z,21.5
2019-01-29T08:51:35.575Z,21.5
2019-01-29T09:01:34.785Z,21.5
2019-01-29T09:11:33.995Z,21.6
2019-01-29T09:21:33.203Z,21.6
2019-01-29T09:31:32.414Z,21.6
2019-01-29T09:41:31.626Z,21.6
2019-01-29T09:51:30.835Z,21.6
2019-01-29T10:01:30.044Z,21.5
2019-01-29T10:11:29.264Z,21.5
2019-01-29T10:21:28.472Z,21.5
2019-01-29T10:31:27.715Z,21.6
2019-01-29T10:41:26.893Z,21.6
2019-01-29T10:51:26.118Z,21.6
2019-01-29T11:01:25.309Z,21.6
2019-01-29T11:11:24.519Z,21.7
2019-01-29T11:21:23.730Z,21.6
2019-01-29T11:31:22.944Z,21.6
2019-01-29T11:41:22.151Z,21.6
2019-01-29T11:51:21.361Z,21.6
2019-01-29T12:01:20.573Z,21.6
2019-01-29T12:11:19.783Z,21.6
2019-01-29T12:21:18.997Z,21.6
2019-01-29T12:31:18.209Z,21.6
2019-01-29T12:41:17.419Z,21.7
2019-01-29T12:51:16.630Z,21.6
2019-01-29T13:01:15.840Z,21.7
2019-01-29T13:11:15.062Z,21.7
2019-01-29T13:21:14.258Z,21.7
2019-01-29T13:31:13.477Z,21.7
2019-01-29T13:41:12.681Z,21.8
2019-01-29T13:51:11.894Z,21.9
2019-01-29T14:01:11.104Z,21.9
2019-01-29T14:11:10.318Z,22.1
2019-01-29T14:21:09.529Z,21.8
2019-01-29T14:31:08.740Z,21.7
2019-01-29T14:41:07.952Z,21.6
2019-01-29T14:51:07.162Z,21.6
2019-01-29T15:01:06.369Z,21.6
2019-01-29T15:11:05.582Z,21.6
2019-01-29T15:21:04.793Z,21.6
2019-01-29T15:31:04.004Z,21.6
2019-01-29T15:41:03.216Z,21.7
2019-01-29T15:51:02.421Z,21.8
2019-01-29T16:01:01.633Z,21.8
2019-01-29T16:11:00.843Z,21.8
2019-01-29T16:21:00.057Z,21.8
2019-01-29T16:30:59.273Z,21.8
2019-01-29T16:41:00.477Z,21.8
2019-01-29T16:50:57.706Z,21.8
2019-01-29T17:00:56.920Z,21.9
2019-01-29T17:10:56.133Z,21.9
2019-01-29T17:20:55.351Z,22.1
2019-01-29T17:30:54.568Z,22.3
2019-01-29T17:40:53.784Z,22.1
2019-01-29T17:50:53.003Z,22.2
2019-01-29T18:00:52.219Z,22.3
2019-01-29T18:10:51.445Z,22.2
2019-01-29T18:20:50.652Z,22.1
2019-01-29T18:30:49.882Z,22.1
2019-01-29T18:40:49.119Z,22.1
2019-01-29T18:50:48.307Z,22
2019-01-29T19:00:54.238Z,21.9
2019-01-29T19:10:46.737Z,22.1
2019-01-29T19:20:45.948Z,22.1
2019-01-29T19:30:45.165Z,22.1
2019-01-29T19:40:44.375Z,22.1
2019-01-29T19:50:43.619Z,22
2019-01-29T20:00:42.805Z,21.9
2019-01-29T20:10:42.026Z,21.9
2019-01-29T20:20:41.244Z,21.9
2019-01-29T20:30:40.483Z,21.8
2019-01-29T20:40:39.669Z,21.9
2019-01-29T20:50:38.904Z,21.7
2019-01-29T21:00:38.095Z,21.7
2019-01-29T21:10:37.306Z,21.7
2019-01-29T21:20:36.517Z,21.6
2019-01-29T21:30:35.758Z,21.6
2019-01-29T21:40:34.942Z,21.6
2019-01-29T21:50:34.152Z,21.6
2019-01-29T22:00:33.364Z,21.5
2019-01-29T22:10:32.569Z,21.5
2019-01-29T22:20:31.781Z,21.5
2019-01-29T22:30:31.042Z,21.4
2019-01-29T22:40:30.198Z,21.4
2019-01-29T22:50:29.407Z,21.4
2019-01-29T23:00:28.619Z,21.4
2019-01-29T23:10:27.827Z,21.4
2019-01-29T23:20:27.035Z,21.4
2019-01-29T23:30:26.245Z,21.4
2019-01-29T23:40:25.453Z,21.3
2019-01-29T23:50:24.661Z,21.3
